Time;durP1;ratioP1;P1;durP2;ratioP2;P2;SDS_P1;SDS_P2;PMS_P1;PMS_P2;Temp;Humidity;BMP_temperature;BMP_pressure;BME280_temperature;BME280_humidity;BME280_pressure;Samples;Min_cycle;Max_cycle;Signal;HPM_P1;HPM_P2
2022/08/09 00:01:38;;;;;;;5.05;3.53;;;;;;;19.62;58.65;102438.53;4905524;28;120110;-82
2022/08/09 00:04:04;;;;;;;4.57;3.58;;;;;;;19.60;58.32;102441.03;4909226;28;122990;-82
2022/08/09 00:06:30;;;;;;;6.03;3.60;;;;;;;19.57;58.87;102437.16;4911150;28;120385;-81
2022/08/09 00:08:56;;;;;;;5.78;3.30;;;;;;;19.50;58.46;102431.91;4908197;28;123003;-82
2022/08/09 00:11:43;;;;;;;5.38;3.25;;;;;;;19.55;58.12;102436.09;4909918;28;120719;-82
2022/08/09 00:14:33;;;;;;;5.18;3.10;;;;;;;19.48;58.54;102423.28;4901957;28;119752;-82
2022/08/09 00:16:59;;;;;;;6.07;3.50;;;;;;;19.46;58.48;102425.75;4907915;28;122953;-81
2022/08/09 00:19:24;;;;;;;5.20;3.65;;;;;;;19.46;58.53;102434.09;4911027;28;119767;-82
2022/08/09 00:21:50;;;;;;;5.43;3.60;;;;;;;19.44;58.32;102433.03;4923207;28;120181;-82
2022/08/09 00:24:16;;;;;;;5.70;3.40;;;;;;;19.38;58.43;102435.66;4884649;28;123397;-82
2022/08/09 00:26:42;;;;;;;5.15;3.40;;;;;;;19.38;58.63;102437.69;4925208;28;119872;-82
2022/08/09 00:29:13;;;;;;;5.72;3.30;;;;;;;19.33;58.69;102439.09;4909394;28;120025;-82
2022/08/09 00:31:39;;;;;;;4.78;3.10;;;;;;;19.25;58.53;102432.31;4924484;28;119980;-82
2022/08/09 00:34:04;;;;;;;5.13;3.33;;;;;;;19.24;58.76;102436.34;4909748;28;122083;-81
2022/08/09 00:36:30;;;;;;;4.00;3.20;;;;;;;19.19;58.41;102437.00;4900533;28;120556;-81
2022/08/09 00:38:56;;;;;;;4.33;3.50;;;;;;;19.19;58.76;102445.34;4924752;28;120122;-82
2022/08/09 00:41:21;;;;;;;7.28;3.60;;;;;;;19.14;58.40;102445.94;4909264;28;121785;-82
2022/08/09 00:43:50;;;;;;;4.80;3.60;;;;;;;19.14;58.76;102452.28;4907192;28;123447;-81
2022/08/09 00:46:16;;;;;;;5.20;3.60;;;;;;;19.12;58.81;102454.00;4909838;28;120362;-81
2022/08/09 00:48:42;;;;;;;5.47;3.70;;;;;;;19.10;58.87;102453.69;4909702;28;120332;-81
2022/08/09 00:51:08;;;;;;;5.30;3.30;;;;;;;19.02;58.71;102448.47;4911233;28;120270;-82
2022/08/09 00:53:35;;;;;;;5.72;3.42;;;;;;;19.00;58.58;102447.38;4906159;28;122294;-82
2022/08/09 00:56:02;;;;;;;5.95;3.60;;;;;;;19.01;58.75;102460.81;4892219;28;123194;-81
2022/08/09 00:58:30;;;;;;;5.28;3.42;;;;;;;18.98;58.38;102458.97;4891868;28;120818;-81
2022/08/09 01:00:56;;;;;;;4.82;3.60;;;;;;;18.87;58.55;102449.56;4922073;28;122284;-81
2022/08/09 01:03:47;;;;;;;5.18;3.63;;;;;;;18.92;58.42;102463.59;4908169;28;121094;-81
2022/08/09 01:06:34;;;;;;;4.37;3.37;;;;;;;18.87;58.82;102463.47;4907944;28;121598;-82
2022/08/09 01:09:22;;;;;;;4.20;3.43;;;;;;;18.84;58.63;102472.72;4909642;28;120621;-81
2022/08/09 01:11:57;;;;;;;6.45;3.95;;;;;;;18.81;58.92;102466.09;4899730;28;122164;-82
2022/08/09 01:14:39;;;;;;;5.00;3.67;;;;;;;18.75;58.71;102456.84;4924288;28;122014;-81
2022/08/09 01:17:22;;;;;;;5.60;3.70;;;;;;;18.75;59.08;102462.41;4908450;28;122015;-81
2022/08/09 01:20:18;;;;;;;6.00;4.13;;;;;;;18.74;59.27;102469.19;4924739;28;119906;-81
2022/08/09 01:22:46;;;;;;;5.38;4.22;;;;;;;18.73;59.16;102470.44;4903040;28;121697;-81
2022/08/09 01:25:35;;;;;;;5.25;4.10;;;;;;;18.73;59.43;102464.88;4905576;28;120257;-81
2022/08/09 01:28:05;;;;;;;5.28;3.90;;;;;;;18.73;59.51;102466.88;4923657;28;119825;-81
2022/08/09 01:30:33;;;;;;;4.82;3.72;;;;;;;18.73;59.12;102467.66;4905815;28;120392;-82
2022/08/09 01:33:00;;;;;;;5.35;3.75;;;;;;;18.72;59.30;102470.91;4909018;28;121454;-83
2022/08/09 01:35:34;;;;;;;4.73;3.80;;;;;;;18.73;59.03;102462.09;4890357;28;122463;-81
2022/08/09 01:38:17;;;;;;;4.23;3.50;;;;;;;18.65;58.67;102461.63;4927712;28;120114;-82
2022/08/09 01:41:06;;;;;;;4.85;3.65;;;;;;;18.66;59.16;102470.72;4909889;28;120982;-82
2022/08/09 01:43:34;;;;;;;5.10;3.47;;;;;;;18.60;58.77;102472.56;4908038;28;120955;-81
2022/08/09 01:46:00;;;;;;;5.13;3.70;;;;;;;18.56;58.97;102472.72;4924137;28;120116;-81
2022/08/09 01:48:27;;;;;;;4.90;3.65;;;;;;;18.56;58.81;102485.84;4888210;28;119994;-81
2022/08/09 01:50:54;;;;;;;6.25;3.75;;;;;;;18.51;59.28;102475.34;4909218;28;122751;-81
2022/08/09 01:53:23;;;;;;;4.82;3.53;;;;;;;18.31;59.48;102479.34;4914423;28;120024;-81
2022/08/09 01:55:52;;;;;;;4.07;3.58;;;;;;;18.19;59.42;102485.00;4902961;28;120690;-81
2022/08/09 01:58:19;;;;;;;4.70;3.60;;;;;;;18.00;59.69;102490.53;4886908;28;120577;-81
2022/08/09 02:00:46;;;;;;;4.45;3.55;;;;;;;17.88;60.21;102491.41;4908921;28;119876;-81
2022/08/09 02:03:14;;;;;;;5.35;3.85;;;;;;;17.78;60.30;102487.06;4910028;28;122444;-81
2022/08/09 02:05:43;;;;;;;4.95;3.53;;;;;;;17.72;60.63;102483.31;4925461;28;123085;-81
2022/08/09 02:08:13;;;;;;;5.80;3.63;;;;;;;17.59;60.93;102488.97;4915192;28;121125;-81
2022/08/09 02:10:42;;;;;;;4.88;4.07;;;;;;;17.49;61.18;102481.81;4904665;28;120499;-81
2022/08/09 02:13:11;;;;;;;7.18;3.90;;;;;;;17.46;61.55;102491.03;4924840;28;120072;-80
2022/08/09 02:15:40;;;;;;;5.68;3.78;;;;;;;17.39;61.71;102499.66;4907470;28;119848;-80
2022/08/09 02:18:07;;;;;;;5.43;4.55;;;;;;;17.41;62.37;102494.41;4922686;28;120339;-80
2022/08/09 02:20:39;;;;;;;6.67;4.77;;;;;;;17.43;62.53;102494.72;4926625;28;123395;-80
2022/08/09 02:23:16;;;;;;;5.22;4.50;;;;;;;17.52;62.00;102494.78;4910194;28;119696;-80
2022/08/09 02:25:44;;;;;;;5.05;4.55;;;;;;;17.47;61.61;102482.25;4908060;28;121153;-80
2022/08/09 02:28:21;;;;;;;6.15;4.53;;;;;;;17.63;61.80;102494.38;4917914;28;120092;-79
2022/08/09 02:30:56;;;;;;;4.83;4.40;;;;;;;17.66;61.82;102499.78;4907205;28;119658;-80
2022/08/09 02:33:28;;;;;;;5.60;4.57;;;;;;;17.69;61.57;102503.66;4907836;28;120456;-80
2022/08/09 02:35:57;;;;;;;6.75;4.80;;;;;;;17.69;61.17;102504.44;4918980;28;120307;-80
2022/08/09 02:38:29;;;;;;;5.20;4.70;;;;;;;17.70;61.34;102492.09;4901185;28;122338;-80
2022/08/09 02:41:07;;;;;;;6.43;4.72;;;;;;;17.70;61.76;102497.66;4884333;28;121952;-80
2022/08/09 02:43:34;;;;;;;5.40;4.40;;;;;;;17.70;61.96;102494.88;4909756;28;120185;-80
2022/08/09 02:46:00;;;;;;;5.67;4.13;;;;;;;17.72;61.50;102500.75;4907583;28;122369;-80
2022/08/09 02:48:31;;;;;;;5.60;4.45;;;;;;;17.73;61.66;102502.28;4908440;28;120341;-80
2022/08/09 02:50:59;;;;;;;5.65;4.38;;;;;;;17.73;61.63;102493.19;4905278;28;122089;-80
2022/08/09 02:53:30;;;;;;;5.85;4.38;;;;;;;17.73;61.13;102491.19;4906434;28;122723;-80
2022/08/09 02:55:58;;;;;;;6.38;4.38;;;;;;;17.72;60.58;102489.66;4921666;28;120639;-80
2022/08/09 02:58:28;;;;;;;6.00;4.03;;;;;;;17.69;60.29;102489.78;4919915;28;120292;-80
2022/08/09 03:00:54;;;;;;;5.50;4.25;;;;;;;17.62;60.82;102479.72;4905849;28;121431;-80
2022/08/09 03:03:22;;;;;;;6.38;4.28;;;;;;;17.63;61.11;102486.03;4891207;28;120345;-80
2022/08/09 03:05:50;;;;;;;4.45;3.85;;;;;;;17.61;61.15;102492.06;4908936;28;120264;-80
2022/08/09 03:08:17;;;;;;;4.97;4.10;;;;;;;17.59;61.24;102486.19;4904436;28;119977;-80
2022/08/09 03:10:44;;;;;;;5.10;4.35;;;;;;;17.59;61.19;102491.75;4889884;28;121995;-80
2022/08/09 03:13:13;;;;;;;5.30;4.00;;;;;;;17.56;61.15;102492.66;4903208;28;122940;-79
2022/08/09 03:15:40;;;;;;;4.60;4.00;;;;;;;17.53;60.79;102488.00;4919258;28;119650;-80
2022/08/09 03:18:07;;;;;;;4.73;4.20;;;;;;;17.48;61.32;102483.81;4888807;28;122556;-81
2022/08/09 03:20:36;;;;;;;4.93;3.97;;;;;;;17.47;60.81;102498.13;4906206;28;123129;-80
2022/08/09 03:23:03;;;;;;;5.43;4.60;;;;;;;17.44;61.34;102499.81;4908002;28;121161;-80
2022/08/09 03:25:30;;;;;;;8.68;4.70;;;;;;;17.43;61.50;102500.28;4906172;28;119931;-80
2022/08/09 03:27:58;;;;;;;5.88;4.60;;;;;;;17.41;61.63;102497.19;4884947;28;119856;-80
2022/08/09 03:30:24;;;;;;;6.40;4.20;;;;;;;17.37;61.27;102497.31;4903769;28;120177;-80
2022/08/09 03:32:53;;;;;;;5.37;4.60;;;;;;;17.35;61.45;102494.22;4906516;28;120421;-80
2022/08/09 03:35:19;;;;;;;4.67;4.17;;;;;;;17.30;61.59;102496.81;4905461;28;120898;-80
2022/08/09 03:37:44;;;;;;;5.03;3.90;;;;;;;17.28;61.67;102499.28;4902026;28;121711;-81
2022/08/09 03:40:11;;;;;;;4.60;4.13;;;;;;;17.23;61.78;102491.53;4919084;28;120040;-80
2022/08/09 03:42:36;;;;;;;4.90;4.25;;;;;;;17.25;61.76;102489.06;4906847;28;120040;-80
2022/08/09 03:45:03;;;;;;;4.97;4.38;;;;;;;17.24;61.65;102490.28;4895982;28;121767;-81
2022/08/09 03:47:28;;;;;;;4.27;3.80;;;;;;;17.17;61.29;102497.66;4888578;28;123022;-80
2022/08/09 03:49:56;;;;;;;4.43;3.90;;;;;;;17.12;61.14;102492.69;4910112;28;119852;-81
2022/08/09 03:52:22;;;;;;;5.85;4.32;;;;;;;17.14;61.32;102489.47;4899242;28;120529;-80
2022/08/09 03:54:51;;;;;;;6.00;4.38;;;;;;;17.11;61.64;102485.63;4905719;28;121416;-81
2022/08/09 03:57:17;;;;;;;6.67;4.20;;;;;;;17.15;61.51;102500.13;4920286;28;120049;-79
2022/08/09 03:59:43;;;;;;;4.70;4.20;;;;;;;17.10;61.63;102500.69;4904287;28;121265;-80
2022/08/09 04:02:09;;;;;;;4.63;3.97;;;;;;;17.16;61.42;102507.22;4908597;28;119622;-80
2022/08/09 04:04:35;;;;;;;6.55;4.20;;;;;;;17.13;61.82;102501.78;4891784;28;121771;-80
2022/08/09 04:07:01;;;;;;;5.07;4.53;;;;;;;17.14;61.98;102503.34;4923959;28;120789;-80
2022/08/09 04:09:28;;;;;;;8.63;5.10;;;;;;;17.21;62.21;102513.41;4912644;28;120052;-80
2022/08/09 04:12:08;;;;;;;7.22;5.40;;;;;;;17.26;61.83;102515.56;4906139;28;120263;-80
2022/08/09 04:14:36;;;;;;;7.53;6.10;;;;;;;17.29;62.10;102512.69;4888388;28;121219;-81
2022/08/09 04:17:01;;;;;;;5.70;5.10;;;;;;;17.28;62.44;102510.38;4925802;28;119621;-81
2022/08/09 04:19:27;;;;;;;5.40;4.88;;;;;;;17.37;62.33;102515.97;4908321;28;122683;-81
2022/08/09 04:21:53;;;;;;;6.05;5.15;;;;;;;17.39;62.10;102519.84;4908170;28;119792;-81
2022/08/09 04:24:19;;;;;;;5.78;4.80;;;;;;;17.39;61.86;102517.06;4890591;28;122430;-81
2022/08/09 04:26:44;;;;;;;5.40;4.80;;;;;;;17.43;62.51;102533.56;4923300;28;120569;-81
2022/08/09 04:29:10;;;;;;;6.88;5.07;;;;;;;17.46;62.34;102524.34;4906237;28;119979;-80
2022/08/09 04:31:36;;;;;;;6.03;5.03;;;;;;;17.50;62.59;102527.75;4913740;28;120280;-81
2022/08/09 04:34:32;;;;;;;5.35;4.85;;;;;;;17.57;62.21;102535.03;4905191;28;121001;-81
2022/08/09 04:36:58;;;;;;;6.53;5.00;;;;;;;17.57;62.42;102532.28;4907910;28;121359;-81
2022/08/09 04:39:24;;;;;;;5.30;4.80;;;;;;;17.65;62.33;102541.88;4907800;28;123976;-81
2022/08/09 04:41:49;;;;;;;5.73;4.87;;;;;;;17.67;62.26;102540.22;4908593;28;120296;-81
2022/08/09 04:44:15;;;;;;;7.40;4.90;;;;;;;17.74;62.17;102542.72;4920400;28;119971;-81
2022/08/09 04:47:01;;;;;;;6.20;4.90;;;;;;;17.81;62.19;102546.44;4907343;28;120865;-80
2022/08/09 04:49:55;;;;;;;6.72;4.45;;;;;;;17.80;62.69;102542.91;4923297;28;120687;-80
2022/08/09 04:52:26;;;;;;;5.87;4.40;;;;;;;17.83;61.94;102541.22;4910690;28;119828;-81
2022/08/09 04:54:53;;;;;;;6.78;4.80;;;;;;;17.87;62.22;102545.38;4895080;28;122043;-81
2022/08/09 04:57:20;;;;;;;5.10;4.20;;;;;;;17.91;62.34;102545.25;4907765;28;122127;-81
2022/08/09 04:59:57;;;;;;;5.03;4.13;;;;;;;18.00;62.37;102556.41;4915627;28;120590;-81
2022/08/09 05:02:25;;;;;;;5.00;4.23;;;;;;;18.00;62.67;102545.31;4907594;28;119787;-80
2022/08/09 05:04:50;;;;;;;6.13;4.53;;;;;;;18.09;62.64;102559.22;4924034;28;120181;-81
2022/08/09 05:07:16;;;;;;;6.10;4.37;;;;;;;18.17;62.59;102554.91;4907395;28;120750;-80
2022/08/09 05:09:41;;;;;;;4.67;4.20;;;;;;;18.24;62.79;102551.09;4907362;28;119656;-81
2022/08/09 05:12:07;;;;;;;5.77;3.90;;;;;;;18.34;62.59;102556.19;4907646;28;121670;-80
2022/08/09 05:14:34;;;;;;;5.75;4.43;;;;;;;18.46;62.47;102559.31;4905609;28;119959;-80
2022/08/09 05:16:59;;;;;;;5.65;4.70;;;;;;;18.51;62.54;102550.38;4925468;28;120152;-81
2022/08/09 05:19:26;;;;;;;6.03;4.65;;;;;;;18.63;62.59;102546.69;4878225;28;122588;-80
2022/08/09 05:21:52;;;;;;;5.03;4.38;;;;;;;18.73;62.29;102556.63;4892020;28;120937;-79
2022/08/09 05:24:18;;;;;;;5.32;4.15;;;;;;;18.85;62.66;102544.56;4906183;28;120282;-80
2022/08/09 05:26:43;;;;;;;6.87;4.53;;;;;;;18.98;62.57;102544.41;4905896;28;123020;-79
2022/08/09 05:29:09;;;;;;;5.70;4.23;;;;;;;19.09;62.85;102541.91;4905803;28;120658;-79
2022/08/09 05:31:34;;;;;;;4.32;3.90;;;;;;;19.29;62.99;102558.13;4926417;28;122013;-81
2022/08/09 05:34:00;;;;;;;5.10;3.90;;;;;;;19.44;62.20;102559.03;4908197;28;121129;-81
2022/08/09 05:36:26;;;;;;;5.28;4.75;;;;;;;19.60;62.50;102557.94;4906250;28;119958;-80
2022/08/09 05:38:51;;;;;;;5.63;4.13;;;;;;;19.76;62.61;102562.38;4911196;28;120025;-80
2022/08/09 05:41:17;;;;;;;8.17;4.60;;;;;;;19.91;62.37;102568.84;4906817;28;120459;-81
2022/08/09 05:43:42;;;;;;;6.97;4.13;;;;;;;19.96;62.13;102540.34;4922183;28;119911;-81
2022/08/09 05:46:10;;;;;;;6.38;4.10;;;;;;;20.22;61.81;102552.59;4872108;28;122975;-80
2022/08/09 05:48:35;;;;;;;8.88;3.90;;;;;;;20.38;61.46;102553.44;4909104;28;120375;-80
2022/08/09 05:51:01;;;;;;;7.60;4.00;;;;;;;20.48;61.45;102547.34;4907715;28;122285;-80
2022/08/09 05:53:27;;;;;;;6.13;3.70;;;;;;;20.57;59.88;102543.72;4907363;28;123276;-81
2022/08/09 05:55:52;;;;;;;5.50;3.80;;;;;;;20.65;59.86;102550.47;4907093;28;119911;-81
2022/08/09 05:58:18;;;;;;;5.30;3.60;;;;;;;20.71;60.32;102548.56;4911383;28;121777;-79
2022/08/09 06:00:43;;;;;;;3.72;3.20;;;;;;;20.66;60.32;102557.59;4906450;28;121621;-81
2022/08/09 06:03:09;;;;;;;5.82;3.35;;;;;;;20.61;60.18;102554.72;4901768;28;120397;-81
2022/08/09 06:05:37;;;;;;;4.05;3.10;;;;;;;20.58;60.13;102555.63;4924515;28;120808;-81
2022/08/09 06:08:04;;;;;;;3.72;3.10;;;;;;;20.60;59.92;102565.09;4893978;28;119749;-81
2022/08/09 06:10:39;;;;;;;5.22;3.20;;;;;;;20.63;60.31;102568.94;4872617;28;121800;-81
2022/08/09 06:13:10;;;;;;;10.13;3.17;;;;;;;20.65;59.94;102563.66;4907674;28;123602;-81
2022/08/09 06:15:36;;;;;;;5.82;3.08;;;;;;;20.66;60.39;102563.19;4907020;28;121187;-81
2022/08/09 06:18:02;;;;;;;5.90;3.33;;;;;;;20.70;60.36;102558.19;4891794;28;123576;-81
2022/08/09 06:20:27;;;;;;;5.03;3.08;;;;;;;20.79;59.80;102560.91;4928653;28;120411;-81
2022/08/09 06:22:53;;;;;;;4.57;3.13;;;;;;;20.85;59.72;102558.25;4910159;28;120214;-80
2022/08/09 06:25:19;;;;;;;4.20;2.50;;;;;;;20.88;59.61;102560.06;4906872;28;121210;-81
2022/08/09 06:27:45;;;;;;;4.32;2.55;;;;;;;20.97;59.73;102556.44;4924627;28;120017;-81
2022/08/09 06:30:11;;;;;;;3.30;2.53;;;;;;;21.06;58.77;102573.88;4921985;28;120196;-81
2022/08/09 06:32:36;;;;;;;3.90;2.53;;;;;;;21.11;59.36;102572.44;4907858;28;122008;-81
2022/08/09 06:35:03;;;;;;;3.83;2.17;;;;;;;21.29;58.62;102579.88;4924443;28;119976;-81
2022/08/09 06:37:28;;;;;;;3.17;2.38;;;;;;;21.33;57.63;102581.25;4909363;28;119746;-80
2022/08/09 06:39:54;;;;;;;4.15;2.30;;;;;;;21.33;57.72;102586.84;4902104;28;123705;-82
2022/08/09 06:42:20;;;;;;;4.15;2.67;;;;;;;21.42;57.66;102592.31;4911944;28;120246;-81
2022/08/09 06:44:49;;;;;;;2.30;2.10;;;;;;;21.48;56.92;102591.63;4904578;28;121280;-81
2022/08/09 06:47:14;;;;;;;4.13;2.30;;;;;;;21.55;56.85;102602.44;4903647;28;119759;-81
2022/08/09 06:49:40;;;;;;;2.75;2.30;;;;;;;21.60;57.00;102596.94;4911235;28;119856;-81
2022/08/09 06:52:05;;;;;;;2.42;2.10;;;;;;;21.68;56.47;102600.13;4901452;28;120471;-81
2022/08/09 06:54:31;;;;;;;2.80;2.33;;;;;;;21.72;55.80;102604.25;4912714;28;120153;-80
2022/08/09 06:56:57;;;;;;;5.07;2.17;;;;;;;21.76;55.97;102609.63;4890330;28;121456;-82
2022/08/09 06:59:23;;;;;;;2.33;1.90;;;;;;;21.81;56.02;102611.78;4907473;28;123540;-81
2022/08/09 07:01:48;;;;;;;3.60;2.00;;;;;;;21.80;55.27;102601.09;4909992;28;119766;-81
2022/08/09 07:04:14;;;;;;;3.85;1.88;;;;;;;21.90;55.80;102608.09;4928516;28;120460;-81
2022/08/09 07:06:40;;;;;;;2.50;1.80;;;;;;;21.92;55.01;102616.75;4900646;28;120190;-81
2022/08/09 07:09:05;;;;;;;1.50;1.40;;;;;;;21.92;54.08;102617.53;4909364;28;122588;-81
2022/08/09 07:11:31;;;;;;;1.63;1.50;;;;;;;21.91;54.46;102618.78;4909223;28;120211;-81
2022/08/09 07:13:56;;;;;;;1.95;1.58;;;;;;;21.95;54.61;102613.75;4903968;28;119853;-81
2022/08/09 07:16:22;;;;;;;2.17;1.50;;;;;;;21.97;54.20;102614.06;4884507;28;122047;-81
2022/08/09 07:18:48;;;;;;;1.52;1.38;;;;;;;22.09;54.37;102617.84;4908741;28;123415;-81
2022/08/09 07:21:22;;;;;;;3.00;1.60;;;;;;;22.31;54.16;102617.41;4907470;28;120217;-81
2022/08/09 07:24:07;;;;;;;1.88;1.70;;;;;;;22.49;53.53;102628.34;4907554;28;120138;-81
2022/08/09 07:26:34;;;;;;;2.10;1.70;;;;;;;22.64;53.52;102631.84;4905881;28;120311;-81
2022/08/09 07:29:04;;;;;;;3.60;1.73;;;;;;;22.85;52.63;102627.06;4907896;28;121851;-81
2022/08/09 07:31:31;;;;;;;2.60;1.80;;;;;;;23.04;52.85;102630.34;4898435;28;120813;-81
2022/08/09 07:33:57;;;;;;;4.00;1.90;;;;;;;23.19;51.73;102622.63;4909626;28;121867;-81
2022/08/09 07:36:26;;;;;;;1.90;1.70;;;;;;;23.37;51.97;102629.16;4917017;28;121000;-80
2022/08/09 07:38:56;;;;;;;3.63;1.95;;;;;;;23.38;50.82;102627.88;4899903;28;120418;-80
2022/08/09 07:41:22;;;;;;;2.03;1.70;;;;;;;23.28;50.80;102630.84;4922194;28;120734;-80
2022/08/09 07:43:47;;;;;;;2.10;1.80;;;;;;;23.18;51.25;102621.06;4906443;28;121784;-80
2022/08/09 07:46:13;;;;;;;2.90;1.92;;;;;;;23.19;51.75;102630.25;4908209;28;120716;-80
2022/08/09 07:48:38;;;;;;;2.47;2.03;;;;;;;23.16;51.68;102626.38;4889533;28;120405;-80
2022/08/09 07:51:04;;;;;;;2.95;2.00;;;;;;;23.20;51.92;102631.78;4908013;28;122193;-80
2022/08/09 07:53:30;;;;;;;2.40;1.80;;;;;;;23.29;52.45;102631.63;4911398;28;120508;-80
2022/08/09 07:55:58;;;;;;;3.65;2.03;;;;;;;23.42;51.12;102636.84;4885894;28;122254;-80
2022/08/09 07:58:23;;;;;;;2.80;2.10;;;;;;;23.48;51.98;102626.47;4904733;28;121099;-80
2022/08/09 08:00:50;;;;;;;2.10;1.53;;;;;;;23.56;50.52;102628.38;4889487;28;120794;-80
2022/08/09 08:03:16;;;;;;;2.25;1.63;;;;;;;23.69;49.73;102630.00;4923993;28;120526;-80
2022/08/09 08:05:42;;;;;;;2.77;1.50;;;;;;;23.70;50.05;102625.94;4907710;28;121533;-80
2022/08/09 08:08:08;;;;;;;2.90;1.60;;;;;;;23.62;50.03;102627.63;4909749;28;122332;-78
2022/08/09 08:10:34;;;;;;;2.67;1.67;;;;;;;23.63;50.09;102629.94;4907626;28;120824;-80
2022/08/09 08:13:00;;;;;;;3.55;1.73;;;;;;;23.75;51.60;102631.59;4907694;28;122412;-80
2022/08/09 08:15:26;;;;;;;2.15;1.90;;;;;;;23.86;49.61;102622.50;4922459;28;121595;-79
2022/08/09 08:17:51;;;;;;;2.30;1.77;;;;;;;23.96;51.13;102623.09;4920388;28;123411;-80
2022/08/09 08:20:23;;;;;;;1.73;1.60;;;;;;;24.02;49.98;102632.31;4922722;28;121087;-80
2022/08/09 08:22:51;;;;;;;2.47;1.90;;;;;;;24.01;49.38;102631.53;4894080;28;120898;-79
2022/08/09 08:25:17;;;;;;;3.20;1.90;;;;;;;24.09;51.17;102640.25;4905245;28;121760;-79
2022/08/09 08:27:43;;;;;;;1.60;1.50;;;;;;;24.45;50.49;102636.72;4907544;28;121601;-79
2022/08/09 08:30:10;;;;;;;2.72;1.50;;;;;;;24.78;48.26;102633.31;4910831;28;121616;-80
2022/08/09 08:32:36;;;;;;;2.80;1.50;;;;;;;25.01;47.41;102641.84;4905661;28;121771;-80
2022/08/09 08:35:02;;;;;;;2.43;1.60;;;;;;;25.06;46.90;102650.28;4919608;28;122004;-80
2022/08/09 08:37:29;;;;;;;1.50;1.40;;;;;;;25.03;46.58;102647.72;4904953;28;123998;-80
2022/08/09 08:39:54;;;;;;;2.10;1.50;;;;;;;25.04;46.61;102643.63;4906322;28;121962;-79
2022/08/09 08:42:20;;;;;;;2.40;1.27;;;;;;;25.01;47.13;102653.84;4883989;28;124031;-79
2022/08/09 08:44:52;;;;;;;1.80;1.40;;;;;;;24.93;46.55;102652.75;4906082;28;123570;-80
2022/08/09 08:47:25;;;;;;;1.40;1.30;;;;;;;24.85;46.88;102654.53;4905367;28;121745;-79
2022/08/09 08:49:52;;;;;;;1.67;1.30;;;;;;;24.90;46.03;102656.59;4921482;28;122354;-80
2022/08/09 08:52:20;;;;;;;3.25;1.40;;;;;;;25.02;47.32;102660.22;4908933;28;122898;-80
2022/08/09 08:54:45;;;;;;;1.42;1.33;;;;;;;25.07;46.22;102649.00;4918452;28;122586;-81
2022/08/09 08:57:11;;;;;;;2.47;1.20;;;;;;;25.21;45.39;102650.06;4919010;28;123562;-79
2022/08/09 08:59:37;;;;;;;1.50;1.17;;;;;;;25.23;45.09;102641.91;4886484;28;122493;-80
2022/08/09 09:02:03;;;;;;;1.10;1.00;;;;;;;25.36;44.79;102647.06;4904478;28;121960;-79
2022/08/09 09:04:31;;;;;;;1.20;1.10;;;;;;;25.40;44.44;102644.75;4899468;28;124207;-80
2022/08/09 09:07:01;;;;;;;1.27;1.00;;;;;;;25.43;45.77;102632.50;4905136;28;121793;-80
2022/08/09 09:09:28;;;;;;;1.42;1.10;;;;;;;25.64;45.54;102649.91;4885227;28;125384;-81
2022/08/09 09:11:57;;;;;;;5.43;1.80;;;;;;;25.78;43.75;102645.31;4888378;28;125284;-80
2022/08/09 09:14:25;;;;;;;1.50;1.13;;;;;;;25.82;43.86;102638.19;4891957;28;122178;-80
2022/08/09 09:16:51;;;;;;;1.50;1.00;;;;;;;25.91;43.40;102648.41;4904421;28;125504;-80
2022/08/09 09:19:17;;;;;;;2.08;1.10;;;;;;;25.85;43.83;102631.53;4904238;28;124523;-81
2022/08/09 09:21:55;;;;;;;1.38;1.00;;;;;;;25.96;43.57;102642.78;4905388;28;124508;-81
2022/08/09 09:24:26;;;;;;;1.98;1.00;;;;;;;25.87;43.18;102637.41;4904642;28;123754;-81
2022/08/09 09:26:59;;;;;;;1.60;0.90;;;;;;;25.79;43.26;102647.66;4905492;28;122009;-81
2022/08/09 09:29:39;;;;;;;1.10;1.00;;;;;;;25.65;43.10;102646.59;4904568;28;122127;-81
2022/08/09 09:32:05;;;;;;;2.40;1.10;;;;;;;25.49;43.68;102644.50;4903253;28;123141;-81
2022/08/09 09:34:32;;;;;;;1.40;1.00;;;;;;;25.40;43.74;102639.16;4898743;28;122106;-80
2022/08/09 09:36:59;;;;;;;1.42;0.90;;;;;;;25.29;43.90;102651.09;4906279;28;124593;-80
2022/08/09 09:39:27;;;;;;;1.15;1.05;;;;;;;25.27;44.80;102639.63;4895815;28;124072;-81
2022/08/09 09:41:54;;;;;;;1.10;0.90;;;;;;;25.38;44.20;102634.03;4905550;28;124323;-80
2022/08/09 09:44:33;;;;;;;1.52;0.95;;;;;;;25.56;44.21;102635.59;4903684;28;124431;-82
2022/08/09 09:47:05;;;;;;;0.90;0.90;;;;;;;25.75;44.10;102637.91;4914951;28;122502;-80
2022/08/09 09:49:36;;;;;;;1.00;0.80;;;;;;;25.88;44.00;102632.56;4888807;28;124821;-80
2022/08/09 09:52:09;;;;;;;1.23;0.93;;;;;;;25.90;42.90;102632.81;4887995;28;125046;-80
2022/08/09 09:54:38;;;;;;;1.38;0.95;;;;;;;25.99;44.86;102638.16;4889343;28;122847;-80
2022/08/09 09:57:14;;;;;;;0.93;0.80;;;;;;;26.13;43.96;102642.78;4901918;28;123909;-80
2022/08/09 09:59:40;;;;;;;1.08;0.80;;;;;;;26.16;42.24;102635.34;4905154;28;124803;-81
2022/08/09 10:02:07;;;;;;;1.35;0.75;;;;;;;26.14;42.38;102640.72;4899088;28;124779;-80
2022/08/09 10:04:33;;;;;;;1.80;0.90;;;;;;;26.13;42.47;102639.94;4914653;28;122594;-80
2022/08/09 10:06:58;;;;;;;0.95;0.88;;;;;;;26.11;42.63;102636.88;4904512;28;122942;-80
2022/08/09 10:09:24;;;;;;;1.10;0.90;;;;;;;26.10;44.95;102628.97;4886955;28;122912;-80
2022/08/09 10:11:59;;;;;;;1.60;0.80;;;;;;;26.16;42.93;102632.53;4905441;28;122614;-81
2022/08/09 10:14:29;;;;;;;1.10;0.90;;;;;;;26.09;42.46;102633.81;4887111;28;122057;-81
2022/08/09 10:16:56;;;;;;;0.97;0.80;;;;;;;26.00;42.85;102614.38;4920781;28;122610;-79
2022/08/09 10:19:36;;;;;;;1.42;1.10;;;;;;;25.99;42.71;102630.50;4911385;28;122637;-79
2022/08/09 10:22:02;;;;;;;0.80;0.70;;;;;;;25.96;42.47;102625.91;4884172;28;123105;-80
2022/08/09 10:24:28;;;;;;;1.63;0.80;;;;;;;25.85;42.65;102614.69;4919043;28;122475;-80
2022/08/09 10:26:56;;;;;;;1.52;0.70;;;;;;;25.82;43.06;102614.94;4903984;28;122371;-80
2022/08/09 10:29:22;;;;;;;1.42;0.70;;;;;;;25.79;43.41;102616.72;4899544;28;122064;-79
2022/08/09 10:31:48;;;;;;;1.00;0.80;;;;;;;25.83;43.90;102616.47;4903743;28;122794;-80
2022/08/09 10:34:14;;;;;;;0.93;0.80;;;;;;;25.89;42.95;102603.94;4887707;28;122381;-80
2022/08/09 10:36:41;;;;;;;0.75;0.75;;;;;;;25.90;43.04;102615.94;4904905;28;121830;-79
2022/08/09 10:39:07;;;;;;;1.97;0.80;;;;;;;25.93;44.08;102617.72;4903726;28;122356;-80
2022/08/09 10:41:34;;;;;;;1.23;0.90;;;;;;;25.99;43.55;102607.22;4908110;28;123022;-80
2022/08/09 10:44:00;;;;;;;1.25;1.00;;;;;;;26.05;43.26;102616.44;4882313;28;122672;-80
2022/08/09 10:46:58;;;;;;;1.38;0.90;;;;;;;26.10;43.69;102612.84;4879180;28;123177;-80
2022/08/09 10:49:44;;;;;;;0.90;0.80;;;;;;;26.21;43.24;102610.00;4899751;28;122488;-80
2022/08/09 10:53:04;;;;;;;0.90;0.80;;;;;;;26.41;42.36;102619.47;4917646;28;123477;-80
2022/08/09 10:55:32;;;;;;;1.00;0.90;;;;;;;26.49;43.17;102612.00;4862706;28;122276;-80
2022/08/09 10:57:58;;;;;;;0.90;0.90;;;;;;;26.65;43.02;102604.78;4902893;28;122797;-80
2022/08/09 11:00:29;;;;;;;1.50;0.93;;;;;;;26.84;42.17;102606.50;4902224;28;122447;-80
2022/08/09 11:02:58;;;;;;;1.27;0.88;;;;;;;26.93;42.56;102609.00;4905558;28;123993;-80
2022/08/09 11:05:26;;;;;;;1.77;1.00;;;;;;;26.99;41.56;102606.22;4882630;28;125514;-81
2022/08/09 11:07:51;;;;;;;1.27;0.90;;;;;;;26.97;41.37;102603.09;4902393;28;123235;-81
2022/08/09 11:10:42;;;;;;;1.47;0.90;;;;;;;27.03;42.58;102608.75;4903247;28;124425;-81
2022/08/09 11:13:16;;;;;;;1.10;0.80;;;;;;;27.11;42.32;102610.47;4904887;28;122473;-80
2022/08/09 11:15:41;;;;;;;1.90;0.90;;;;;;;27.13;41.01;102610.72;4921007;28;123460;-80
2022/08/09 11:18:11;;;;;;;2.30;1.00;;;;;;;27.06;40.64;102602.84;4906462;28;122337;-80
2022/08/09 11:20:46;;;;;;;0.90;0.80;;;;;;;26.90;41.08;102607.22;4878641;28;125153;-80
2022/08/09 11:23:14;;;;;;;1.20;1.00;;;;;;;26.74;41.62;102596.84;4901767;28;122559;-78
2022/08/09 11:25:43;;;;;;;1.47;0.97;;;;;;;26.81;42.93;102607.53;4907957;28;122842;-80